Accueil
METAR-TAF:

METAR-TAF

Aéroports :

Aéroport international de Bagdad

Bagdad, Irak

latitude: 33-15-45N, longitude: 44-14-04E, altitude: 35 m

Observation

Le bulletin a été fait il y a 14 minutes, à 11:00 UTC
Vent 9 kt de ouest, variant entre sud-ouest et nord-ouest
Température 11°C
Humidité 30%
Pression 1021 hPa
Visibilité 10 km ou plus
Quelques nuages à une hauteur de 3500 ft

METAR: ORBI 181100Z 27009KT 230V310 9999 FEW035 11/M06 Q1021 NOSIG

Heure: 14:14 (11:14 UTC)

Prévision

Le bulletin a été fait il y a 7 heures et 14 minutes, à 04:00 UTC
Prévision valable du 18 à 06 UTC au 19 à 06 UTC
Vent 6 kt de ouest/sud-ouest
Visibilité: 8000 m

TAF: ORBI 180400Z 1806/1906 24006KT 8000 NSC

Observations et prévisions météorologiques de plus de 4000 aéroports (messages METAR et TAF).

Les stations disponibles sont représentées par des disques jaunes et rouges sur la carte.

Passer la souris dessus pour voir le nom de la station.

Cliquer dessus pour voir les observations et prévisions météorologiques.

Pour changer de carte: cliquez sur les boutons verts avec une croix noire pour zoomer, sur le bouton vert avec un tiret pour effectuer un zoom arrière, ou sur les flèches vertes pour les cartes adjacentes.


METAR-TAF: